<?xml version="1.0" encoding="utf-8"?>
<gpx xmlns:xsi="http://www.w3.org/2001/XMLSchema-instance" xmlns:xsd="http://www.w3.org/2001/XMLSchema" version="1.1" creator="Shapelink.com" xmlns="http://www.topografix.com/GPX/1/1" xmlns:gpxtpx="http://www.garmin.com/xmlschemas/TrackPointExtension/v1">
  <metadata>
    <name>Övrigt 2.32 km, 2019-07-07</name>
    <desc></desc>
    <author><name>Marian Moron</name></author> 
    <time>2019-07-07T20:10:45Z</time>
  </metadata>
  <trk>
    <name>Övrigt 2.32 km, 2019-07-07</name>
    <trkseg>
      <trkpt lat="51.229877505663" lon="4.458025581003">
        <ele>5</ele>
        <time>2019-07-07T20:10:45Z</time>
      </trkpt>
      <trkpt lat="51.230033409003" lon="4.458567470838">
        <ele>0.8</ele>
        <time>2019-07-07T20:11:12Z</time>
      </trkpt>
      <trkpt lat="51.230075821417" lon="4.458801661124">
        <ele>0</ele>
        <time>2019-07-07T20:11:21Z</time>
      </trkpt>
      <trkpt lat="51.230141367875" lon="4.458966868373">
        <ele>0.2</ele>
        <time>2019-07-07T20:11:27Z</time>
      </trkpt>
      <trkpt lat="51.230354268135" lon="4.458969382943">
        <ele>0</ele>
        <time>2019-07-07T20:11:45Z</time>
      </trkpt>
      <trkpt lat="51.230365416062" lon="4.459002910543">
        <ele>0</ele>
        <time>2019-07-07T20:11:47Z</time>
      </trkpt>
      <trkpt lat="51.230512434588" lon="4.459589643543">
        <ele>0</ele>
        <time>2019-07-07T20:12:27Z</time>
      </trkpt>
      <trkpt lat="51.230574963562" lon="4.459711935464">
        <ele>0</ele>
        <time>2019-07-07T20:12:37Z</time>
      </trkpt>
      <trkpt lat="51.230668505566" lon="4.460402520205">
        <ele>0</ele>
        <time>2019-07-07T20:13:16Z</time>
      </trkpt>
      <trkpt lat="51.230539591944" lon="4.460792865288">
        <ele>0</ele>
        <time>2019-07-07T20:13:46Z</time>
      </trkpt>
      <trkpt lat="51.230204064487" lon="4.46082622525">
        <ele>0</ele>
        <time>2019-07-07T20:14:19Z</time>
      </trkpt>
      <trkpt lat="51.229782454917" lon="4.46099051049">
        <ele>0</ele>
        <time>2019-07-07T20:14:54Z</time>
      </trkpt>
      <trkpt lat="51.229763679461" lon="4.461016913475">
        <ele>0</ele>
        <time>2019-07-07T20:14:56Z</time>
      </trkpt>
      <trkpt lat="51.229861412415" lon="4.461434332095">
        <ele>0</ele>
        <time>2019-07-07T20:15:16Z</time>
      </trkpt>
      <trkpt lat="51.230055369581" lon="4.462042690397">
        <ele>0</ele>
        <time>2019-07-07T20:15:50Z</time>
      </trkpt>
      <trkpt lat="51.23006886444" lon="4.462084767535">
        <ele>0</ele>
        <time>2019-07-07T20:16:18Z</time>
      </trkpt>
      <trkpt lat="51.230193670931" lon="4.462650461966">
        <ele>0</ele>
        <time>2019-07-07T20:16:50Z</time>
      </trkpt>
      <trkpt lat="51.230243459417" lon="4.462826314228">
        <ele>0</ele>
        <time>2019-07-07T20:17:12Z</time>
      </trkpt>
      <trkpt lat="51.23017950552" lon="4.462972578383">
        <ele>0</ele>
        <time>2019-07-07T20:17:26Z</time>
      </trkpt>
      <trkpt lat="51.230231138024" lon="4.463099480349">
        <ele>0</ele>
        <time>2019-07-07T20:17:44Z</time>
      </trkpt>
      <trkpt lat="51.230241112485" lon="4.463141976582">
        <ele>0</ele>
        <time>2019-07-07T20:17:46Z</time>
      </trkpt>
      <trkpt lat="51.230303725278" lon="4.46341874692">
        <ele>0</ele>
        <time>2019-07-07T20:18:09Z</time>
      </trkpt>
      <trkpt lat="51.230372373039" lon="4.463864161086">
        <ele>0</ele>
        <time>2019-07-07T20:18:31Z</time>
      </trkpt>
      <trkpt lat="51.23006802625" lon="4.464212680488">
        <ele>0</ele>
        <time>2019-07-07T20:19:03Z</time>
      </trkpt>
      <trkpt lat="51.229974065151" lon="4.464238077645">
        <ele>0</ele>
        <time>2019-07-07T20:19:26Z</time>
      </trkpt>
      <trkpt lat="51.229679357547" lon="4.464155432111">
        <ele>15.8</ele>
        <time>2019-07-07T20:19:46Z</time>
      </trkpt>
      <trkpt lat="51.229442904148" lon="4.464297756773">
        <ele>0</ele>
        <time>2019-07-07T20:20:11Z</time>
      </trkpt>
      <trkpt lat="51.229256742149" lon="4.464383671248">
        <ele>0</ele>
        <time>2019-07-07T20:20:28Z</time>
      </trkpt>
      <trkpt lat="51.229111902917" lon="4.464342348481">
        <ele>3.8</ele>
        <time>2019-07-07T20:21:59Z</time>
      </trkpt>
      <trkpt lat="51.228882657952" lon="4.464376462814">
        <ele>2.4</ele>
        <time>2019-07-07T20:22:20Z</time>
      </trkpt>
      <trkpt lat="51.228838317701" lon="4.464367410362">
        <ele>0</ele>
        <time>2019-07-07T20:22:28Z</time>
      </trkpt>
      <trkpt lat="51.228791965794" lon="4.46439020913">
        <ele>0</ele>
        <time>2019-07-07T20:22:36Z</time>
      </trkpt>
      <trkpt lat="51.228733292494" lon="4.464632194583">
        <ele>0</ele>
        <time>2019-07-07T20:23:42Z</time>
      </trkpt>
      <trkpt lat="51.22875206795" lon="4.465127145778">
        <ele>0</ele>
        <time>2019-07-07T20:24:07Z</time>
      </trkpt>
      <trkpt lat="51.228733460132" lon="4.465366365204">
        <ele>0</ele>
        <time>2019-07-07T20:24:16Z</time>
      </trkpt>
      <trkpt lat="51.228701357455" lon="4.465527130046">
        <ele>0</ele>
        <time>2019-07-07T20:24:24Z</time>
      </trkpt>
      <trkpt lat="51.228654754091" lon="4.465688816897">
        <ele>0</ele>
        <time>2019-07-07T20:24:35Z</time>
      </trkpt>
      <trkpt lat="51.228281759541" lon="4.466131213579">
        <ele>0</ele>
        <time>2019-07-07T20:25:17Z</time>
      </trkpt>
      <trkpt lat="51.228264911922" lon="4.466159460582">
        <ele>0</ele>
        <time>2019-07-07T20:25:18Z</time>
      </trkpt>
      <trkpt lat="51.227916895434" lon="4.466590793156">
        <ele>0.4</ele>
        <time>2019-07-07T20:25:51Z</time>
      </trkpt>
      <trkpt lat="51.227904238765" lon="4.466666230256">
        <ele>0</ele>
        <time>2019-07-07T20:25:55Z</time>
      </trkpt>
      <trkpt lat="51.227916560158" lon="4.466725071194">
        <ele>0</ele>
        <time>2019-07-07T20:25:58Z</time>
      </trkpt>
      <trkpt lat="51.227955200717" lon="4.466773937671">
        <ele>0</ele>
        <time>2019-07-07T20:26:05Z</time>
      </trkpt>
      <trkpt lat="51.228350491121" lon="4.467145674936">
        <ele>0</ele>
        <time>2019-07-07T20:26:39Z</time>
      </trkpt>
      <trkpt lat="51.228556518223" lon="4.46727358273">
        <ele>0</ele>
        <time>2019-07-07T20:26:59Z</time>
      </trkpt>
      <trkpt lat="51.228976870508" lon="4.467501318953">
        <ele>0</ele>
        <time>2019-07-07T20:27:32Z</time>
      </trkpt>
      <trkpt lat="51.229422200855" lon="4.467627969462">
        <ele>0</ele>
        <time>2019-07-07T20:28:04Z</time>
      </trkpt>
      <trkpt lat="51.229867615021" lon="4.467498804383">
        <ele>0</ele>
        <time>2019-07-07T20:28:35Z</time>
      </trkpt>
      <trkpt lat="51.230025446198" lon="4.467468713362">
        <ele>0</ele>
        <time>2019-07-07T20:28:49Z</time>
      </trkpt>
      <trkpt lat="51.230242956503" lon="4.467395790832">
        <ele>0</ele>
        <time>2019-07-07T20:29:08Z</time>
      </trkpt>
      <trkpt lat="51.230394417436" lon="4.467342565767">
        <ele>0</ele>
        <time>2019-07-07T20:29:20Z</time>
      </trkpt>
      <trkpt lat="51.230661129494" lon="4.467286826132">
        <ele>0</ele>
        <time>2019-07-07T20:29:42Z</time>
      </trkpt>
      <trkpt lat="51.23109564719" lon="4.467110051861">
        <ele>0</ele>
        <time>2019-07-07T20:30:12Z</time>
      </trkpt>
      <trkpt lat="51.231373423356" lon="4.46653681372">
        <ele>0</ele>
        <time>2019-07-07T20:30:57Z</time>
      </trkpt>
      <trkpt lat="51.231379374505" lon="4.466521474843">
        <ele>0</ele>
        <time>2019-07-07T20:30:58Z</time>
      </trkpt>
      <trkpt lat="51.231556735509" lon="4.4661529227">
        <ele>3.4</ele>
        <time>2019-07-07T20:31:24Z</time>
      </trkpt>
      <trkpt lat="51.231599315561" lon="4.466125094792">
        <ele>5.8</ele>
        <time>2019-07-07T20:31:29Z</time>
      </trkpt>
      <trkpt lat="51.231840211367" lon="4.465513886644">
        <ele>9.4</ele>
        <time>2019-07-07T20:32:04Z</time>
      </trkpt>
      <trkpt lat="51.231913469173" lon="4.465406179229">
        <ele>7.2</ele>
        <time>2019-07-07T20:32:16Z</time>
      </trkpt>
      <trkpt lat="51.232004748064" lon="4.46520744438">
        <ele>7</ele>
        <time>2019-07-07T20:32:31Z</time>
      </trkpt>
      <trkpt lat="51.232103486846" lon="4.46508674502">
        <ele>6.4</ele>
        <time>2019-07-07T20:32:41Z</time>
      </trkpt>
      <trkpt lat="51.232139109921" lon="4.465031675937">
        <ele>3.4</ele>
        <time>2019-07-07T20:32:46Z</time>
      </trkpt>
      <trkpt lat="51.232171212598" lon="4.464962441443">
        <ele>2</ele>
        <time>2019-07-07T20:32:55Z</time>
      </trkpt>
      <trkpt lat="51.232168446571" lon="4.464813159804">
        <ele>7.2</ele>
        <time>2019-07-07T20:33:23Z</time>
      </trkpt>
      <trkpt lat="51.232364163936" lon="4.464191474281">
        <ele>6.2</ele>
        <time>2019-07-07T20:33:56Z</time>
      </trkpt>
      <trkpt lat="51.232371707646" lon="4.463540955022">
        <ele>0</ele>
        <time>2019-07-07T20:34:28Z</time>
      </trkpt>
      <trkpt lat="51.232318314943" lon="4.463027228371">
        <ele>0</ele>
        <time>2019-07-07T20:34:56Z</time>
      </trkpt>
      <trkpt lat="51.232270202837" lon="4.462841569286">
        <ele>0</ele>
        <time>2019-07-07T20:35:08Z</time>
      </trkpt>
      <trkpt lat="51.232139948111" lon="4.46273981302">
        <ele>0</ele>
        <time>2019-07-07T20:35:26Z</time>
      </trkpt>
      <trkpt lat="51.232130308926" lon="4.4627079618">
        <ele>0</ele>
        <time>2019-07-07T20:35:28Z</time>
      </trkpt>
      <trkpt lat="51.23213584098" lon="4.462430856186">
        <ele>5</ele>
        <time>2019-07-07T20:35:52Z</time>
      </trkpt>
      <trkpt lat="51.232155286988" lon="4.46209105396">
        <ele>4.6</ele>
        <time>2019-07-07T20:36:16Z</time>
      </trkpt>
      <trkpt lat="51.232127123804" lon="4.461769272819">
        <ele>4.6</ele>
        <time>2019-07-07T20:36:44Z</time>
      </trkpt>
      <trkpt lat="51.232044981184" lon="4.461609513805">
        <ele>0.2</ele>
        <time>2019-07-07T20:36:58Z</time>
      </trkpt>
      <trkpt lat="51.232031653963" lon="4.461455035388">
        <ele>0</ele>
        <time>2019-07-07T20:37:10Z</time>
      </trkpt>
      <trkpt lat="51.231897627382" lon="4.460899566875">
        <ele>0</ele>
        <time>2019-07-07T20:37:42Z</time>
      </trkpt>
      <trkpt lat="51.231850269647" lon="4.460796637143">
        <ele>0</ele>
        <time>2019-07-07T20:37:53Z</time>
      </trkpt>
      <trkpt lat="51.231853203312" lon="4.460757409851">
        <ele>0</ele>
        <time>2019-07-07T20:37:55Z</time>
      </trkpt>
      <trkpt lat="51.231856220796" lon="4.460452811605">
        <ele>0</ele>
        <time>2019-07-07T20:38:12Z</time>
      </trkpt>
      <trkpt lat="51.231800481161" lon="4.4599922262">
        <ele>0</ele>
        <time>2019-07-07T20:38:43Z</time>
      </trkpt>
      <trkpt lat="51.231749938304" lon="4.459775470266">
        <ele>1.6</ele>
        <time>2019-07-07T20:39:04Z</time>
      </trkpt>
      <trkpt lat="51.231604596158" lon="4.459085723715">
        <ele>0</ele>
        <time>2019-07-07T20:39:43Z</time>
      </trkpt>
      <trkpt lat="51.231442154936" lon="4.458454231369">
        <ele>0</ele>
        <time>2019-07-07T20:40:23Z</time>
      </trkpt>
      <trkpt lat="51.231383230179" lon="4.458504103674">
        <ele>1.6</ele>
        <time>2019-07-07T20:40:34Z</time>
      </trkpt>
      <trkpt lat="51.2313630298" lon="4.458513826678">
        <ele>1.4</ele>
        <time>2019-07-07T20:40:36Z</time>
      </trkpt>
      <trkpt lat="51.230926248991" lon="4.458729325327">
        <ele>0.4</ele>
        <time>2019-07-07T20:41:13Z</time>
      </trkpt>
      <trkpt lat="51.230850728072" lon="4.45875421957">
        <ele>1</ele>
        <time>2019-07-07T20:41:24Z</time>
      </trkpt>
      <trkpt lat="51.230404056621" lon="4.458867039944">
        <ele>5.4</ele>
        <time>2019-07-07T20:42:03Z</time>
      </trkpt>
      <trkpt lat="51.230164501919" lon="4.45898304544">
        <ele>2.8</ele>
        <time>2019-07-07T20:42:26Z</time>
      </trkpt>
      <trkpt lat="51.230114881071" lon="4.459015064298">
        <ele>2.2</ele>
        <time>2019-07-07T20:42:31Z</time>
      </trkpt>
      <trkpt lat="51.229929054348" lon="4.459060578015">
        <ele>2</ele>
        <time>2019-07-07T20:42:45Z</time>
      </trkpt>
      <trkpt lat="51.229899298603" lon="4.458364628858">
        <ele>0</ele>
        <time>2019-07-07T20:43:19Z</time>
      </trkpt>
      <trkpt lat="51.229823190951" lon="4.457960705097">
        <ele>0</ele>
        <time>2019-07-07T20:43:42Z</time>
      </trkpt>
      <trkpt lat="51.22973107387" lon="4.457981073114">
        <ele>0</ele>
        <time>2019-07-07T20:43:48Z</time>
      </trkpt>
    </trkseg>
  </trk>
</gpx>